createdAt,value
2018-10-09T00:00:53.335Z,75.80
2018-10-09T00:03:21.448Z,76.10
2018-10-09T00:05:49.736Z,76.20
2018-10-09T00:08:18.042Z,76.20
2018-10-09T00:10:46.296Z,76.10
2018-10-09T00:13:14.509Z,76.30
2018-10-09T00:15:42.869Z,76.30
2018-10-09T00:18:11.130Z,76.20
2018-10-09T00:20:40.360Z,76.10
2018-10-09T00:23:08.726Z,76.00
2018-10-09T00:25:36.926Z,76.00
2018-10-09T00:28:05.194Z,75.90
2018-10-09T00:30:33.462Z,75.50
2018-10-09T00:33:01.691Z,74.90
2018-10-09T00:35:29.914Z,74.90
2018-10-09T00:37:58.122Z,74.90
2018-10-09T00:40:26.374Z,75.00
2018-10-09T00:42:54.642Z,75.00
2018-10-09T00:45:22.877Z,75.10
2018-10-09T00:47:51.220Z,75.10
2018-10-09T00:50:19.471Z,75.20
2018-10-09T00:52:47.881Z,75.30
2018-10-09T00:55:16.098Z,75.50
2018-10-09T00:57:44.281Z,75.80
2018-10-09T01:00:12.494Z,75.90
2018-10-09T01:02:40.723Z,75.90
2018-10-09T01:05:08.966Z,75.90
2018-10-09T01:07:37.198Z,75.80
2018-10-09T01:10:05.521Z,75.80
2018-10-09T01:12:33.735Z,75.60
2018-10-09T01:15:01.944Z,75.50
2018-10-09T01:17:30.254Z,75.50
2018-10-09T01:19:58.530Z,75.50
2018-10-09T01:22:26.782Z,75.50
2018-10-09T01:24:55.011Z,75.50
2018-10-09T01:27:23.245Z,75.40
2018-10-09T01:29:51.476Z,75.50
2018-10-09T01:32:20.421Z,75.60
2018-10-09T01:37:40.033Z,75.60
2018-10-09T01:40:08.299Z,75.60
2018-10-09T01:42:36.553Z,75.70
2018-10-09T01:45:04.857Z,75.70
2018-10-09T01:47:33.145Z,75.90
2018-10-09T01:50:01.650Z,76.00
2018-10-09T01:52:29.891Z,76.20
2018-10-09T01:54:58.217Z,76.30
2018-10-09T01:57:26.458Z,76.40
2018-10-09T01:59:54.737Z,76.40
2018-10-09T02:02:23.234Z,76.30
2018-10-09T02:04:51.446Z,76.10
2018-10-09T02:07:19.801Z,76.10
2018-10-09T02:09:48.076Z,75.90
2018-10-09T02:12:16.325Z,75.90
2018-10-09T02:14:44.579Z,75.80
2018-10-09T02:17:12.840Z,75.50
2018-10-09T02:19:41.103Z,75.40
2018-10-09T02:22:09.483Z,75.30
2018-10-09T02:24:37.781Z,75.20
2018-10-09T02:27:06.407Z,75.20
2018-10-09T02:29:34.676Z,75.20
2018-10-09T02:32:02.931Z,75.30
2018-10-09T02:34:31.298Z,75.40
2018-10-09T02:36:59.619Z,75.50
2018-10-09T02:39:27.858Z,75.50
2018-10-09T02:41:56.114Z,75.60
2018-10-09T02:44:24.416Z,75.80
2018-10-09T02:46:52.608Z,76.00
2018-10-09T02:49:20.875Z,76.00
2018-10-09T02:51:49.181Z,75.80
2018-10-09T02:54:17.404Z,75.70
2018-10-09T02:56:45.585Z,75.80
2018-10-09T02:59:13.781Z,75.90
2018-10-09T03:01:42.064Z,75.80
2018-10-09T03:04:11.153Z,75.80
2018-10-09T03:06:39.433Z,75.90
2018-10-09T03:09:09.345Z,75.70
2018-10-09T03:11:37.797Z,75.60
2018-10-09T03:14:06.399Z,75.60
2018-10-09T03:16:34.661Z,75.60
2018-10-09T03:19:02.873Z,75.60
2018-10-09T03:21:31.119Z,75.60
2018-10-09T03:23:59.378Z,75.70
2018-10-09T03:26:27.626Z,75.60
2018-10-09T03:28:55.894Z,75.50
2018-10-09T03:31:24.162Z,75.50
2018-10-09T03:33:52.422Z,75.50
2018-10-09T03:36:20.594Z,75.80
2018-10-09T03:38:48.877Z,75.80
2018-10-09T03:41:17.155Z,75.80
2018-10-09T03:43:45.432Z,75.90
2018-10-09T03:46:13.760Z,75.90
2018-10-09T03:48:42.039Z,75.80
2018-10-09T03:51:10.393Z,75.80
2018-10-09T03:53:38.663Z,75.60
2018-10-09T03:56:06.974Z,75.20
2018-10-09T03:58:35.450Z,74.70
2018-10-09T04:01:03.685Z,74.60
2018-10-09T04:03:31.942Z,74.40
2018-10-09T04:06:00.925Z,74.40
2018-10-09T04:08:29.130Z,74.40
2018-10-09T04:10:57.382Z,74.50
2018-10-09T04:13:25.649Z,74.70
2018-10-09T04:15:54.810Z,75.00
2018-10-09T04:18:23.034Z,75.20
2018-10-09T04:20:51.263Z,75.40
2018-10-09T04:23:19.535Z,75.90
2018-10-09T04:25:47.771Z,76.10
2018-10-09T04:28:16.051Z,76.10
2018-10-09T04:30:44.856Z,76.00
2018-10-09T04:33:13.087Z,75.90
2018-10-09T04:35:41.420Z,75.80
2018-10-09T04:38:11.286Z,75.90
2018-10-09T04:40:39.509Z,76.00
2018-10-09T04:43:07.755Z,75.80
2018-10-09T04:45:36.086Z,75.70
2018-10-09T04:48:04.231Z,75.80
2018-10-09T04:50:32.454Z,76.10
2018-10-09T04:53:00.879Z,76.00
2018-10-09T04:55:29.213Z,76.00
2018-10-09T04:57:57.574Z,76.00
2018-10-09T05:00:25.824Z,76.10
2018-10-09T05:02:54.059Z,76.20
2018-10-09T05:05:22.275Z,76.20
2018-10-09T05:07:50.590Z,76.50
2018-10-09T05:10:18.814Z,76.50
2018-10-09T05:12:47.082Z,76.40
2018-10-09T05:15:15.265Z,76.40
2018-10-09T05:17:43.556Z,76.40
2018-10-09T05:20:11.948Z,76.60
2018-10-09T05:22:40.465Z,76.80
2018-10-09T05:25:09.449Z,76.70
2018-10-09T05:27:38.036Z,76.50
2018-10-09T05:30:06.371Z,76.40
2018-10-09T05:32:34.639Z,76.50
2018-10-09T05:35:02.897Z,76.60
2018-10-09T05:37:31.305Z,76.70
2018-10-09T05:39:59.633Z,76.70
2018-10-09T05:42:28.133Z,76.60
2018-10-09T05:44:56.354Z,76.70
2018-10-09T05:47:24.757Z,76.60
2018-10-09T05:49:53.036Z,76.60
2018-10-09T05:52:21.455Z,76.60
2018-10-09T05:54:50.084Z,76.70
2018-10-09T05:57:18.409Z,76.60
2018-10-09T05:59:46.791Z,76.40
2018-10-09T06:02:15.125Z,76.30
2018-10-09T06:04:43.606Z,76.00
2018-10-09T06:07:13.098Z,76.00
2018-10-09T06:09:41.342Z,76.00
2018-10-09T06:12:09.531Z,76.00
2018-10-09T06:14:37.802Z,76.20
2018-10-09T06:17:06.069Z,76.40
2018-10-09T06:19:34.303Z,76.60
2018-10-09T06:22:02.630Z,76.70
2018-10-09T06:24:30.857Z,76.90
2018-10-09T06:26:59.244Z,77.10
2018-10-09T06:29:27.509Z,77.50
2018-10-09T06:31:55.728Z,77.90
2018-10-09T06:34:24.037Z,78.20
2018-10-09T06:36:52.298Z,78.60
2018-10-09T06:39:20.518Z,78.80
2018-10-09T06:41:48.765Z,79.10
2018-10-09T06:44:16.956Z,79.00
2018-10-09T06:46:45.168Z,78.80
2018-10-09T06:49:15.058Z,78.60
2018-10-09T06:51:43.332Z,78.50
2018-10-09T06:54:11.777Z,78.40
2018-10-09T06:56:39.954Z,78.30
2018-10-09T06:59:08.182Z,78.30
2018-10-09T07:01:36.461Z,78.30
2018-10-09T07:04:04.774Z,78.40
2018-10-09T07:06:33.041Z,78.40
2018-10-09T07:09:01.289Z,78.50
2018-10-09T07:11:29.527Z,78.60
2018-10-09T07:13:57.982Z,78.50
2018-10-09T07:16:26.204Z,78.50
2018-10-09T07:18:54.403Z,78.60
2018-10-09T07:21:22.639Z,78.60
2018-10-09T07:23:50.910Z,78.80
2018-10-09T07:26:20.748Z,78.90
2018-10-09T07:28:48.985Z,79.00
2018-10-09T07:31:17.285Z,79.00
2018-10-09T07:33:45.478Z,79.30
2018-10-09T07:36:13.956Z,79.40
2018-10-09T07:38:42.139Z,79.70
2018-10-09T07:41:10.516Z,79.70
2018-10-09T07:43:38.719Z,79.70
2018-10-09T07:46:07.044Z,79.60
2018-10-09T07:48:35.303Z,79.80
2018-10-09T07:51:03.618Z,79.60
2018-10-09T07:53:31.831Z,79.50
2018-10-09T07:56:00.081Z,79.50
2018-10-09T07:58:28.405Z,79.40
2018-10-09T08:00:56.718Z,79.30
2018-10-09T08:03:24.936Z,79.30
2018-10-09T08:05:53.154Z,79.20
2018-10-09T08:08:22.275Z,79.10
2018-10-09T08:10:50.608Z,79.00
2018-10-09T08:13:18.753Z,79.00
2018-10-09T08:15:46.986Z,78.90
2018-10-09T08:18:15.223Z,78.60
2018-10-09T08:20:43.604Z,78.10
2018-10-09T08:23:12.160Z,77.60
2018-10-09T08:25:40.515Z,77.30
2018-10-09T08:28:09.102Z,77.00
2018-10-09T08:30:37.338Z,77.00
2018-10-09T08:33:05.711Z,77.10
2018-10-09T08:35:34.041Z,76.90
2018-10-09T08:38:02.403Z,76.70
2018-10-09T08:40:31.501Z,76.60
2018-10-09T08:42:59.911Z,76.50
2018-10-09T08:45:28.414Z,76.50
2018-10-09T08:47:56.767Z,76.60
2018-10-09T08:50:24.999Z,76.60
2018-10-09T08:52:53.468Z,76.30
2018-10-09T08:55:22.158Z,76.20
2018-10-09T08:57:51.604Z,76.30
2018-10-09T09:00:19.989Z,76.30
2018-10-09T09:02:48.475Z,76.10
2018-10-09T09:05:16.836Z,75.70
2018-10-09T09:07:45.675Z,75.80
2018-10-09T09:10:14.007Z,75.90
2018-10-09T09:12:42.387Z,76.00
2018-10-09T09:15:10.858Z,75.90
2018-10-09T09:17:39.184Z,75.70
2018-10-09T09:20:07.694Z,75.50
2018-10-09T09:22:36.188Z,75.50
2018-10-09T09:25:04.671Z,75.50
2018-10-09T09:27:33.216Z,75.20
2018-10-09T09:30:01.417Z,75.00
2018-10-09T09:32:29.741Z,74.60
2018-10-09T09:34:58.056Z,74.60
2018-10-09T09:37:26.403Z,74.90
2018-10-09T09:39:54.702Z,75.00
2018-10-09T09:42:23.053Z,75.00
2018-10-09T09:44:51.483Z,74.70
2018-10-09T09:47:19.807Z,74.70
2018-10-09T09:49:48.297Z,74.30
2018-10-09T09:52:16.921Z,73.90
2018-10-09T09:54:45.360Z,73.90
2018-10-09T09:57:15.617Z,73.60
2018-10-09T09:59:44.007Z,73.60
2018-10-09T10:02:12.531Z,73.60
2018-10-09T10:04:41.144Z,73.30
2018-10-09T10:07:09.543Z,72.70
2018-10-09T10:09:37.847Z,72.70
2018-10-09T10:12:06.350Z,72.40
2018-10-09T10:14:34.842Z,72.30
2018-10-09T10:17:03.273Z,72.00
2018-10-09T10:19:31.788Z,71.40
2018-10-09T10:22:00.442Z,71.30
2018-10-09T10:24:29.008Z,71.20
2018-10-09T10:26:57.410Z,71.30
2018-10-09T10:29:25.899Z,71.00
2018-10-09T10:31:54.599Z,70.70
2018-10-09T10:34:22.949Z,70.70
2018-10-09T10:36:52.389Z,70.70
2018-10-09T10:39:21.152Z,70.30
2018-10-09T10:41:49.567Z,70.30
2018-10-09T10:44:18.218Z,70.10
2018-10-09T10:46:46.894Z,69.90
2018-10-09T10:49:15.536Z,69.60
2018-10-09T10:51:44.192Z,69.50
2018-10-09T10:54:12.707Z,69.30
2018-10-09T10:56:41.365Z,68.70
2018-10-09T10:59:09.860Z,68.70
2018-10-09T11:01:38.372Z,68.90
2018-10-09T11:04:06.978Z,68.80
2018-10-09T11:06:35.259Z,68.40
2018-10-09T11:09:04.583Z,68.40
2018-10-09T11:11:33.096Z,68.10
2018-10-09T11:14:02.184Z,67.90
2018-10-09T11:16:30.559Z,67.40
2018-10-09T11:18:58.994Z,67.50
2018-10-09T11:21:27.526Z,67.40
2018-10-09T11:23:55.771Z,67.60
2018-10-09T11:26:24.564Z,67.50
2018-10-09T11:28:52.913Z,67.10
2018-10-09T11:31:21.208Z,66.60
2018-10-09T11:33:49.747Z,66.50
2018-10-09T11:36:18.097Z,66.20
2018-10-09T11:38:46.399Z,66.00
2018-10-09T11:41:14.936Z,66.30
2018-10-09T11:43:43.854Z,66.40
2018-10-09T11:46:12.314Z,65.90
2018-10-09T11:48:40.845Z,66.10
2018-10-09T11:51:09.185Z,66.00
2018-10-09T11:53:37.558Z,65.90
2018-10-09T11:56:06.423Z,65.80
2018-10-09T11:58:34.850Z,65.70
2018-10-09T12:01:06.035Z,65.50
2018-10-09T12:03:34.630Z,65.40
2018-10-09T12:06:03.115Z,65.50
2018-10-09T12:08:31.599Z,65.40
2018-10-09T12:11:00.487Z,65.50
2018-10-09T12:13:29.436Z,66.00
2018-10-09T12:15:58.064Z,66.10
2018-10-09T12:18:26.781Z,66.30
2018-10-09T12:20:55.146Z,66.30
2018-10-09T12:23:23.651Z,66.30
2018-10-09T12:25:52.001Z,66.20
2018-10-09T12:28:20.523Z,66.30
2018-10-09T12:30:49.022Z,66.10
2018-10-09T12:33:17.401Z,66.10
2018-10-09T12:35:45.947Z,65.80
2018-10-09T12:38:14.479Z,65.50
2018-10-09T12:40:42.783Z,65.50
2018-10-09T12:43:11.273Z,65.00
2018-10-09T12:45:39.654Z,64.90
2018-10-09T12:48:08.032Z,64.80
2018-10-09T12:50:36.670Z,64.80
2018-10-09T12:53:05.099Z,64.80
2018-10-09T12:55:33.529Z,64.40
2018-10-09T12:58:01.838Z,64.30
2018-10-09T13:00:30.309Z,64.10
2018-10-09T13:02:58.957Z,64.00
2018-10-09T13:05:27.261Z,64.20
2018-10-09T13:07:55.847Z,64.60
2018-10-09T13:10:24.176Z,64.30
2018-10-09T13:12:52.477Z,64.20
2018-10-09T13:15:20.896Z,63.70
2018-10-09T13:17:49.116Z,63.40
2018-10-09T13:20:17.534Z,63.60
2018-10-09T13:22:55.773Z,63.40
2018-10-09T13:25:24.034Z,63.60
2018-10-09T13:27:52.512Z,63.60
2018-10-09T13:30:21.134Z,63.40
2018-10-09T13:32:49.414Z,63.30
2018-10-09T13:35:18.502Z,63.20
2018-10-09T13:37:46.958Z,63.00
2018-10-09T13:40:15.246Z,63.00
2018-10-09T13:42:43.588Z,62.80
2018-10-09T13:45:12.617Z,62.80
2018-10-09T13:47:41.258Z,63.00
2018-10-09T13:50:09.609Z,62.80
2018-10-09T13:52:38.077Z,62.50
2018-10-09T13:55:06.457Z,62.60
2018-10-09T13:57:35.163Z,63.00
2018-10-09T14:00:03.618Z,62.50
2018-10-09T14:02:32.013Z,62.40
2018-10-09T14:05:00.229Z,62.20
2018-10-09T14:07:28.459Z,62.30
2018-10-09T14:09:56.808Z,62.40
2018-10-09T14:12:25.327Z,62.30
2018-10-09T14:14:53.666Z,62.30
2018-10-09T14:17:21.966Z,62.30
2018-10-09T14:19:50.470Z,62.40
2018-10-09T14:22:19.605Z,62.30
2018-10-09T14:24:48.162Z,62.30
2018-10-09T14:27:16.579Z,62.20
2018-10-09T14:29:44.982Z,62.20
2018-10-09T14:32:13.334Z,62.20
2018-10-09T14:34:41.812Z,62.10
2018-10-09T14:37:10.218Z,62.00
2018-10-09T14:39:38.522Z,62.00
2018-10-09T14:42:07.034Z,62.00
2018-10-09T14:44:36.498Z,62.00
2018-10-09T14:47:04.803Z,62.00
2018-10-09T14:49:33.907Z,62.40
2018-10-09T14:52:02.230Z,62.80
2018-10-09T14:54:30.546Z,61.80
2018-10-09T14:56:59.068Z,61.50
2018-10-09T14:59:27.478Z,61.50
2018-10-09T15:01:56.464Z,61.30
2018-10-09T15:04:25.541Z,61.30
2018-10-09T15:06:53.854Z,61.40
2018-10-09T15:09:22.176Z,61.20
2018-10-09T15:11:51.727Z,61.20
2018-10-09T15:14:20.227Z,61.10
2018-10-09T15:16:48.615Z,61.10
2018-10-09T15:19:16.849Z,61.10
2018-10-09T15:21:45.214Z,60.70
2018-10-09T15:24:13.606Z,60.60
2018-10-09T15:26:42.529Z,60.60
2018-10-09T15:29:10.981Z,60.60
2018-10-09T15:31:39.365Z,60.50
2018-10-09T15:34:08.154Z,60.60
2018-10-09T15:36:36.701Z,60.60
2018-10-09T15:39:08.281Z,60.70
2018-10-09T15:41:36.679Z,60.70
2018-10-09T15:44:05.427Z,60.70
2018-10-09T15:46:33.936Z,60.80
2018-10-09T15:49:02.319Z,60.80
2018-10-09T15:51:31.598Z,61.00
2018-10-09T15:54:00.080Z,61.00
2018-10-09T15:56:28.330Z,61.00
2018-10-09T15:58:56.742Z,61.00
2018-10-09T16:01:25.081Z,61.00
2018-10-09T16:03:53.415Z,60.90
2018-10-09T16:06:21.703Z,61.00
2018-10-09T16:08:50.959Z,61.30
2018-10-09T16:11:19.291Z,61.20
2018-10-09T16:13:47.667Z,61.40
2018-10-09T16:16:16.062Z,62.00
2018-10-09T16:18:44.503Z,62.20
2018-10-09T16:21:12.820Z,61.90
2018-10-09T16:23:41.152Z,62.20
2018-10-09T16:26:09.494Z,62.50
2018-10-09T16:28:37.834Z,62.80
2018-10-09T16:31:06.544Z,62.60
2018-10-09T16:33:36.738Z,62.90
2018-10-09T16:36:05.222Z,63.30
2018-10-09T16:38:33.879Z,63.50
2018-10-09T16:41:02.149Z,63.80
2018-10-09T16:43:30.548Z,63.90
2018-10-09T16:45:58.996Z,64.30
2018-10-09T16:48:27.381Z,64.40
2018-10-09T16:50:55.735Z,64.60
2018-10-09T16:53:24.205Z,64.90
2018-10-09T16:55:52.514Z,65.10
2018-10-09T16:58:21.038Z,65.30
2018-10-09T17:00:49.328Z,65.50
2018-10-09T17:03:17.703Z,65.70
2018-10-09T17:05:45.948Z,66.00
2018-10-09T17:08:14.477Z,66.30
2018-10-09T17:10:43.039Z,66.50
2018-10-09T17:13:11.605Z,66.70
2018-10-09T17:15:40.087Z,66.90
2018-10-09T17:18:08.357Z,67.10
2018-10-09T17:20:36.799Z,67.50
2018-10-09T17:23:05.209Z,67.70
2018-10-09T17:25:34.879Z,68.00
2018-10-09T17:28:03.403Z,68.20
2018-10-09T17:30:31.792Z,68.40
2018-10-09T17:33:00.085Z,68.60
2018-10-09T17:35:28.483Z,68.80
2018-10-09T17:37:56.830Z,68.90
2018-10-09T17:40:25.242Z,69.10
2018-10-09T17:42:53.465Z,69.20
2018-10-09T17:45:21.867Z,69.40
2018-10-09T17:47:50.111Z,69.60
2018-10-09T17:50:18.643Z,69.70
2018-10-09T17:52:46.952Z,69.80
2018-10-09T17:55:15.228Z,69.90
2018-10-09T17:57:43.503Z,69.90
2018-10-09T18:00:11.834Z,69.90
2018-10-09T18:02:40.397Z,69.90
2018-10-09T18:05:08.814Z,70.10
2018-10-09T18:07:37.130Z,70.30
2018-10-09T18:10:06.540Z,70.30
2018-10-09T18:12:35.023Z,70.60
2018-10-09T18:15:03.621Z,70.80
2018-10-09T18:17:32.434Z,70.90
2018-10-09T18:20:00.877Z,70.90
2018-10-09T18:22:29.271Z,70.90
2018-10-09T18:24:57.747Z,71.00
2018-10-09T18:27:26.549Z,71.00
2018-10-09T18:29:54.989Z,71.00
2018-10-09T18:32:23.723Z,71.10
2018-10-09T18:34:52.243Z,71.10
2018-10-09T18:37:20.907Z,71.20
2018-10-09T18:39:49.533Z,71.30
2018-10-09T18:42:17.914Z,71.40
2018-10-09T18:44:46.187Z,71.50
2018-10-09T18:47:19.926Z,71.60
2018-10-09T18:49:48.323Z,71.70
2018-10-09T18:52:16.563Z,71.80
2018-10-09T18:54:44.976Z,71.80
2018-10-09T18:57:13.299Z,71.90
2018-10-09T18:59:41.625Z,72.10
2018-10-09T19:02:10.566Z,72.30
2018-10-09T19:04:39.562Z,72.30
2018-10-09T19:07:07.767Z,72.50
2018-10-09T19:09:36.121Z,72.60
2018-10-09T19:12:04.439Z,72.70
2018-10-09T19:14:32.715Z,72.80
2018-10-09T19:17:00.925Z,72.80
2018-10-09T19:19:29.190Z,73.00
2018-10-09T19:21:57.991Z,73.00
2018-10-09T19:24:26.234Z,73.00
2018-10-09T19:26:54.475Z,73.00
2018-10-09T19:29:22.698Z,73.10
2018-10-09T19:31:50.963Z,73.20
2018-10-09T19:34:19.214Z,73.20
2018-10-09T19:36:47.512Z,73.20
2018-10-09T19:39:15.722Z,73.30
2018-10-09T19:41:44.001Z,73.40
2018-10-09T19:44:12.239Z,73.60
2018-10-09T19:46:41.138Z,73.70
2018-10-09T19:49:09.437Z,73.70
2018-10-09T19:51:37.724Z,73.80
2018-10-09T19:54:06.139Z,74.00
2018-10-09T19:56:34.385Z,73.90
2018-10-09T19:59:02.698Z,73.90
2018-10-09T20:01:30.956Z,73.90
2018-10-09T20:03:59.170Z,73.90
2018-10-09T20:06:28.016Z,73.90
2018-10-09T20:08:56.259Z,73.90
2018-10-09T20:11:24.476Z,73.90
2018-10-09T20:13:52.771Z,73.90
2018-10-09T20:16:21.019Z,73.90
2018-10-09T20:18:49.270Z,74.00
2018-10-09T20:21:17.752Z,74.10
2018-10-09T20:23:47.456Z,74.20
2018-10-09T20:26:15.708Z,74.30
2018-10-09T20:28:44.035Z,74.30
2018-10-09T20:31:12.262Z,74.50
2018-10-09T20:33:40.517Z,74.40
2018-10-09T20:36:08.831Z,74.50
2018-10-09T20:38:37.028Z,74.50
2018-10-09T20:41:05.245Z,74.50
2018-10-09T20:43:33.471Z,74.50
2018-10-09T20:46:01.745Z,74.50
2018-10-09T20:48:30.032Z,74.50
2018-10-09T20:50:58.384Z,74.60
2018-10-09T20:53:26.627Z,74.50
2018-10-09T20:55:55.858Z,74.50
2018-10-09T20:58:24.714Z,74.60
2018-10-09T21:00:52.951Z,74.70
2018-10-09T21:03:21.241Z,74.80
2018-10-09T21:05:49.533Z,74.80
2018-10-09T21:08:17.729Z,74.90
2018-10-09T21:10:46.025Z,74.80
2018-10-09T21:13:14.237Z,74.90
2018-10-09T21:15:42.464Z,75.00
2018-10-09T21:18:10.700Z,75.00
2018-10-09T21:20:38.955Z,75.00
2018-10-09T21:23:07.307Z,75.20
2018-10-09T21:25:35.540Z,75.30
2018-10-09T21:28:03.947Z,75.30
2018-10-09T21:30:33.711Z,75.20
2018-10-09T21:33:02.123Z,75.10
2018-10-09T21:35:31.725Z,75.10
2018-10-09T21:38:00.856Z,75.10
2018-10-09T21:40:30.084Z,75.10
2018-10-09T21:42:58.306Z,75.20
2018-10-09T21:45:26.875Z,75.20
2018-10-09T21:47:59.946Z,75.30
2018-10-09T21:50:28.382Z,75.30
2018-10-09T21:52:57.107Z,75.30
2018-10-09T21:55:25.748Z,75.40
2018-10-09T21:57:54.203Z,75.50
2018-10-09T22:00:22.482Z,75.70
2018-10-09T22:02:50.702Z,75.90
2018-10-09T22:05:18.937Z,76.00
2018-10-09T22:07:47.151Z,75.90
2018-10-09T22:10:15.427Z,75.80
2018-10-09T22:12:43.707Z,75.80
2018-10-09T22:15:11.942Z,75.70
2018-10-09T22:17:40.165Z,75.80
2018-10-09T22:20:09.083Z,75.80
2018-10-09T22:22:37.348Z,75.80
2018-10-09T22:25:05.700Z,75.80
2018-10-09T22:27:33.972Z,75.80
2018-10-09T22:30:02.169Z,75.90
2018-10-09T22:32:30.418Z,76.00
2018-10-09T22:34:58.626Z,76.00
2018-10-09T22:37:26.817Z,75.90
2018-10-09T22:39:55.035Z,76.00
2018-10-09T22:42:23.214Z,76.00
2018-10-09T22:44:51.418Z,76.00
2018-10-09T22:47:19.610Z,76.00
2018-10-09T22:49:47.857Z,75.90
2018-10-09T22:52:16.130Z,75.80
2018-10-09T22:54:44.364Z,75.80
2018-10-09T22:57:12.635Z,75.70
2018-10-09T22:59:40.847Z,75.60
2018-10-09T23:02:09.022Z,75.40
2018-10-09T23:04:37.207Z,75.40
2018-10-09T23:07:05.747Z,75.30
2018-10-09T23:09:33.967Z,75.40
2018-10-09T23:12:02.143Z,75.50
2018-10-09T23:14:30.347Z,75.50
2018-10-09T23:16:58.518Z,75.60
2018-10-09T23:19:26.723Z,75.60
2018-10-09T23:21:54.887Z,75.80
2018-10-09T23:24:23.107Z,76.00
2018-10-09T23:26:51.455Z,76.00
2018-10-09T23:29:19.717Z,76.10
2018-10-09T23:31:47.933Z,76.30
2018-10-09T23:34:16.138Z,76.40
2018-10-09T23:36:44.343Z,76.40
2018-10-09T23:39:12.540Z,76.30
2018-10-09T23:41:40.709Z,76.10
2018-10-09T23:44:08.886Z,75.80
2018-10-09T23:46:39.259Z,75.50
2018-10-09T23:49:07.495Z,75.20
2018-10-09T23:51:35.670Z,74.90
2018-10-09T23:54:03.925Z,74.90
2018-10-09T23:56:32.124Z,74.80
2018-10-09T23:59:00.331Z,75.00
